createdAt,value
2019-04-28T00:02:10.900Z,15.20
2019-04-28T00:04:38.049Z,18.30
2019-04-28T00:07:05.395Z,15.80
2019-04-28T00:09:32.754Z,16.67
2019-04-28T00:12:01.718Z,18.67
2019-04-28T00:14:29.308Z,16.73
2019-04-28T00:16:56.778Z,19.90
2019-04-28T00:19:25.428Z,12.27
2019-04-28T00:22:16.825Z,15.37
2019-04-28T00:24:52.326Z,16.50
2019-04-28T00:27:21.504Z,14.97
2019-04-28T00:29:49.080Z,14.67
2019-04-28T00:32:16.555Z,15.40
2019-04-28T00:34:43.902Z,17.67
2019-04-28T00:37:17.967Z,20.63
2019-04-28T00:39:45.414Z,18.40
2019-04-28T00:42:12.750Z,18.97
2019-04-28T00:44:41.737Z,24.90
2019-04-28T00:47:11.089Z,20.40
2019-04-28T00:49:47.139Z,17.57
2019-04-28T00:52:18.607Z,14.27
2019-04-28T00:54:46.816Z,13.63
2019-04-28T00:57:14.311Z,16.13
2019-04-28T00:59:54.018Z,19.43
2019-04-28T01:02:41.098Z,19.77
2019-04-28T01:05:08.767Z,18.03
2019-04-28T01:07:36.290Z,20.83
2019-04-28T01:10:04.909Z,22.47
2019-04-28T01:12:32.348Z,14.90
2019-04-28T01:15:04.034Z,20.90
2019-04-28T01:17:40.621Z,17.67
2019-04-28T01:20:09.877Z,22.07
2019-04-28T01:22:37.264Z,23.80
2019-04-28T01:25:04.753Z,15.50
2019-04-28T01:27:51.653Z,15.97
2019-04-28T01:30:29.951Z,18.07
2019-04-28T01:33:02.678Z,22.67
2019-04-28T01:35:30.164Z,15.17
2019-04-28T01:37:57.580Z,21.47
2019-04-28T01:40:24.896Z,13.80
2019-04-28T01:42:52.344Z,15.17
2019-04-28T01:45:20.549Z,16.20
2019-04-28T01:47:48.014Z,20.43
2019-04-28T01:50:15.353Z,18.93
2019-04-28T01:52:42.610Z,15.43
2019-04-28T01:55:10.231Z,15.57
2019-04-28T01:57:37.613Z,19.10
2019-04-28T02:00:20.048Z,21.47
2019-04-28T02:02:36.234Z,15.17
2019-04-28T02:05:04.362Z,17.77
2019-04-28T02:07:32.951Z,18.37
2019-04-28T02:10:00.818Z,19.87
2019-04-28T02:12:30.220Z,15.77
2019-04-28T02:14:57.308Z,14.57
2019-04-28T02:17:24.661Z,21.10
2019-04-28T02:19:52.285Z,11.87
2019-04-28T02:22:28.018Z,14.70
2019-04-28T02:24:55.339Z,23.10
2019-04-28T02:27:22.696Z,17.03
2019-04-28T02:29:50.073Z,21.73
2019-04-28T02:32:21.167Z,17.47
2019-04-28T02:34:50.556Z,15.03
2019-04-28T02:37:20.231Z,22.03
2019-04-28T02:39:46.768Z,12.77
2019-04-28T02:42:14.209Z,20.33
2019-04-28T02:44:41.583Z,20.90
2019-04-28T02:47:10.731Z,24.70
2019-04-28T02:50:00.831Z,14.60
2019-04-28T02:52:46.362Z,14.07
2019-04-28T02:55:13.713Z,12.07
2019-04-28T02:57:41.099Z,11.87
2019-04-28T03:00:10.371Z,22.67
2019-04-28T03:02:37.929Z,20.70
2019-04-28T03:05:05.833Z,18.47
2019-04-28T03:07:33.179Z,23.20
2019-04-28T03:10:03.480Z,16.80
2019-04-28T03:12:31.395Z,23.17
2019-04-28T03:15:00.563Z,18.67
2019-04-28T03:17:30.998Z,18.83
2019-04-28T03:20:00.716Z,18.33
2019-04-28T03:22:26.994Z,19.00
2019-04-28T03:24:56.203Z,16.10
2019-04-28T03:27:51.719Z,21.50
2019-04-28T03:30:36.841Z,13.43
2019-04-28T03:33:11.993Z,22.80
2019-04-28T03:35:34.357Z,11.10
2019-04-28T03:38:01.743Z,16.47
2019-04-28T03:40:31.013Z,17.67
2019-04-28T03:43:00.313Z,17.03
2019-04-28T03:45:33.158Z,17.20
2019-04-28T03:48:00.494Z,14.87
2019-04-28T03:50:28.006Z,15.47
2019-04-28T03:52:55.411Z,18.73
2019-04-28T03:55:22.815Z,11.47
2019-04-28T03:57:51.054Z,20.77
2019-04-28T04:00:18.806Z,19.03
2019-04-28T04:02:46.145Z,20.97
2019-04-28T04:05:13.621Z,16.07
2019-04-28T04:07:43.226Z,17.00
2019-04-28T04:10:30.412Z,14.30
2019-04-28T04:13:11.135Z,14.73
2019-04-28T04:15:53.775Z,13.87
2019-04-28T04:18:26.225Z,18.63
2019-04-28T04:20:53.566Z,17.87
2019-04-28T04:23:23.168Z,20.20
2019-04-28T04:25:51.876Z,19.03
2019-04-28T04:28:20.522Z,18.03
2019-04-28T04:30:50.852Z,18.83
2019-04-28T04:33:17.497Z,19.83
2019-04-28T04:35:44.943Z,18.77
2019-04-28T04:38:12.341Z,18.70
2019-04-28T04:40:41.316Z,14.47
2019-04-28T04:43:11.172Z,14.53
2019-04-28T04:45:40.443Z,15.30
2019-04-28T04:48:07.501Z,22.80
2019-04-28T04:50:34.939Z,21.53
2019-04-28T04:53:02.843Z,22.13
2019-04-28T04:55:30.858Z,14.27
2019-04-28T04:58:00.583Z,17.50
2019-04-28T05:00:52.948Z,13.37
2019-04-28T05:03:23.980Z,11.83
2019-04-28T05:05:51.337Z,12.93
2019-04-28T05:08:20.318Z,15.70
2019-04-28T05:10:47.784Z,19.20
2019-04-28T05:13:15.210Z,14.47
2019-04-28T05:15:42.504Z,16.87
2019-04-28T05:18:10.203Z,11.77
2019-04-28T05:20:37.715Z,16.80
2019-04-28T05:23:14.085Z,15.83
2019-04-28T05:25:42.456Z,16.73
2019-04-28T05:28:10.426Z,16.07
2019-04-28T05:30:39.648Z,17.10
2019-04-28T05:33:07.180Z,23.00
2019-04-28T05:35:35.799Z,17.00
2019-04-28T05:38:03.276Z,14.73
2019-04-28T05:40:30.658Z,13.37
2019-04-28T05:42:58.055Z,13.80
2019-04-28T05:45:26.940Z,14.50
2019-04-28T05:47:55.215Z,15.90
2019-04-28T05:50:29.682Z,18.03
2019-04-28T05:53:25.545Z,15.77
2019-04-28T05:56:00.789Z,11.87
2019-04-28T05:58:42.356Z,17.67
2019-04-28T06:01:43.230Z,13.60
2019-04-28T06:04:11.284Z,16.77
2019-04-28T06:06:40.798Z,12.73
2019-04-28T06:09:25.847Z,11.73
2019-04-28T06:11:54.637Z,10.40
2019-04-28T06:14:22.138Z,12.63
2019-04-28T06:16:50.684Z,14.70
2019-04-28T06:19:20.093Z,15.20
2019-04-28T06:21:47.516Z,12.37
2019-04-28T06:24:15.118Z,17.10
2019-04-28T06:26:42.556Z,15.93
2019-04-28T06:29:09.884Z,14.87
2019-04-28T06:31:37.400Z,14.43
2019-04-28T06:34:04.839Z,11.27
2019-04-28T06:36:32.182Z,14.27
2019-04-28T06:38:59.549Z,13.07
2019-04-28T06:41:26.984Z,12.63
2019-04-28T06:43:54.341Z,14.23
2019-04-28T06:46:21.782Z,15.93
2019-04-28T06:48:49.144Z,12.00
2019-04-28T06:51:16.492Z,11.20
2019-04-28T06:53:43.845Z,10.80
2019-04-28T06:56:11.184Z,11.77
2019-04-28T06:58:38.656Z,10.50
2019-04-28T07:01:06.098Z,12.47
2019-04-28T07:03:33.550Z,9.60
2019-04-28T07:06:00.923Z,12.57
2019-04-28T07:08:28.379Z,7.13
2019-04-28T07:10:55.735Z,11.23
2019-04-28T07:13:23.306Z,10.33
2019-04-28T07:15:50.872Z,13.13
2019-04-28T07:18:18.420Z,9.00
2019-04-28T07:20:55.112Z,12.33
2019-04-28T07:23:22.564Z,10.47
2019-04-28T07:25:50.021Z,11.40
2019-04-28T07:28:17.471Z,9.67
2019-04-28T07:30:44.869Z,13.23
2019-04-28T07:33:12.212Z,5.93
2019-04-28T07:35:39.594Z,8.27
2019-04-28T07:38:06.952Z,10.20
2019-04-28T07:40:34.298Z,11.27
2019-04-28T07:43:01.835Z,9.90
2019-04-28T07:45:29.219Z,10.70
2019-04-28T07:47:57.032Z,8.83
2019-04-28T07:50:24.361Z,10.83
2019-04-28T07:52:57.354Z,6.23
2019-04-28T07:55:24.821Z,10.03
2019-04-28T07:57:52.234Z,7.97
2019-04-28T08:00:26.037Z,10.50
2019-04-28T08:02:53.452Z,8.23
2019-04-28T08:05:20.867Z,11.13
2019-04-28T08:07:48.230Z,8.43
2019-04-28T08:10:15.654Z,11.60
2019-04-28T08:12:42.993Z,9.90
2019-04-28T08:15:21.903Z,6.83
2019-04-28T08:17:52.141Z,6.70
2019-04-28T08:20:20.396Z,6.17
2019-04-28T08:22:47.773Z,7.00
2019-04-28T08:25:15.199Z,7.00
2019-04-28T08:27:42.502Z,6.20
2019-04-28T08:30:10.009Z,5.67
2019-04-28T08:32:43.919Z,8.83
2019-04-28T08:35:11.555Z,5.50
2019-04-28T08:37:38.985Z,5.03
2019-04-28T08:40:06.579Z,5.17
2019-04-28T08:42:34.005Z,7.97
2019-04-28T08:45:01.373Z,5.17
2019-04-28T08:47:28.709Z,6.53
2019-04-28T08:49:56.151Z,7.70
2019-04-28T08:52:23.477Z,9.37
2019-04-28T08:54:50.873Z,6.00
2019-04-28T08:57:18.304Z,8.40
2019-04-28T08:59:45.515Z,5.83
2019-04-28T09:02:12.857Z,7.07
2019-04-28T09:04:40.169Z,6.23
2019-04-28T09:07:07.533Z,5.93
2019-04-28T09:09:34.846Z,5.30
2019-04-28T09:12:02.185Z,5.40
2019-04-28T09:14:29.557Z,6.10
2019-04-28T09:16:57.119Z,5.30
2019-04-28T09:19:24.489Z,4.47
2019-04-28T09:21:51.837Z,4.50
2019-04-28T09:24:19.337Z,3.23
2019-04-28T09:26:46.715Z,4.60
2019-04-28T09:29:14.115Z,5.43
2019-04-28T09:31:41.487Z,5.23
2019-04-28T09:34:08.823Z,7.50
2019-04-28T09:36:36.157Z,4.63
2019-04-28T09:39:05.583Z,6.37
2019-04-28T09:41:33.535Z,4.80
2019-04-28T09:44:10.352Z,5.00
2019-04-28T09:46:39.335Z,4.70
2019-04-28T09:49:06.679Z,4.20
2019-04-28T09:51:34.071Z,3.57
2019-04-28T09:54:01.483Z,3.57
2019-04-28T09:56:28.892Z,3.80
2019-04-28T09:58:56.345Z,2.57
2019-04-28T10:01:23.803Z,3.20
2019-04-28T10:03:51.191Z,5.83
2019-04-28T10:06:18.596Z,2.10
2019-04-28T10:08:46.031Z,3.33
2019-04-28T10:11:13.301Z,4.27
2019-04-28T10:13:40.672Z,2.90
2019-04-28T10:16:07.911Z,1.47
2019-04-28T10:18:35.224Z,2.33
2019-04-28T10:21:02.567Z,2.70
2019-04-28T10:23:29.944Z,2.60
2019-04-28T10:25:57.299Z,1.60
2019-04-28T10:28:24.653Z,1.27
2019-04-28T10:30:52.159Z,2.23
2019-04-28T10:33:21.359Z,1.03
2019-04-28T10:35:48.691Z,1.23
2019-04-28T10:38:16.076Z,0.80
2019-04-28T10:41:03.256Z,1.50
2019-04-28T10:43:31.057Z,1.23
2019-04-28T10:45:58.589Z,1.20
2019-04-28T10:48:26.048Z,1.60
2019-04-28T10:50:53.449Z,0.93
2019-04-28T10:53:20.822Z,1.10
2019-04-28T10:55:48.291Z,0.70
2019-04-28T10:58:15.544Z,1.27
2019-04-28T11:00:42.916Z,0.70
2019-04-28T11:03:10.402Z,7.40
2019-04-28T11:05:41.119Z,2.97
2019-04-28T11:08:15.976Z,1.53
2019-04-28T11:10:43.358Z,0.63
2019-04-28T11:13:10.827Z,2.13
2019-04-28T11:15:38.221Z,2.87
2019-04-28T11:18:06.554Z,1.57
2019-04-28T11:20:33.927Z,1.63
2019-04-28T11:23:01.344Z,1.10
2019-04-28T11:25:28.981Z,1.10
2019-04-28T11:27:56.437Z,0.93
2019-04-28T11:30:24.015Z,1.63
2019-04-28T11:33:16.735Z,1.13
2019-04-28T11:35:44.193Z,1.00
2019-04-28T11:38:11.559Z,4.57
2019-04-28T11:40:39.086Z,1.47
2019-04-28T11:43:06.720Z,1.87
2019-04-28T11:45:34.120Z,1.40
2019-04-28T11:48:01.540Z,1.43
2019-04-28T11:50:29.159Z,1.47
2019-04-28T11:52:56.924Z,2.60
2019-04-28T11:55:24.289Z,1.90
2019-04-28T11:57:51.761Z,0.83
2019-04-28T12:00:30.985Z,1.13
2019-04-28T12:02:58.573Z,0.40
2019-04-28T12:05:34.819Z,0.93
2019-04-28T12:07:59.849Z,0.47
2019-04-28T12:10:31.647Z,1.00
2019-04-28T12:13:14.896Z,3.33
2019-04-28T12:16:00.317Z,1.50
2019-04-28T12:18:50.063Z,2.27
2019-04-28T12:21:17.605Z,0.27
2019-04-28T12:23:44.991Z,0.40
2019-04-28T12:26:12.491Z,0.50
2019-04-28T12:28:39.886Z,0.30
2019-04-28T12:31:07.264Z,1.03
2019-04-28T12:33:34.527Z,1.67
2019-04-28T12:36:03.896Z,0.70
2019-04-28T12:38:31.214Z,0.73
2019-04-28T12:40:58.622Z,2.07
2019-04-28T12:43:25.975Z,1.57
2019-04-28T12:45:53.335Z,1.10
2019-04-28T12:48:20.697Z,1.33
2019-04-28T12:50:50.351Z,0.97
2019-04-28T12:53:17.793Z,1.60
2019-04-28T12:55:45.192Z,2.10
2019-04-28T12:58:12.575Z,1.50
2019-04-28T13:00:51.764Z,5.90
2019-04-28T13:03:44.393Z,4.47
2019-04-28T13:06:13.982Z,1.87
2019-04-28T13:08:41.375Z,3.40
2019-04-28T13:11:08.796Z,3.50
2019-04-28T13:13:36.107Z,3.60
2019-04-28T13:16:03.673Z,2.07
2019-04-28T13:18:30.995Z,3.00
2019-04-28T13:20:59.110Z,3.10
2019-04-28T13:23:26.968Z,3.50
2019-04-28T13:25:54.897Z,2.47
2019-04-28T13:28:22.301Z,3.23
2019-04-28T13:30:49.836Z,2.53
2019-04-28T13:33:17.289Z,2.03
2019-04-28T13:35:44.667Z,1.63
2019-04-28T13:38:12.026Z,2.13
2019-04-28T13:40:40.377Z,0.90
2019-04-28T13:43:07.724Z,0.87
2019-04-28T13:45:35.170Z,2.93
2019-04-28T13:48:02.565Z,3.77
2019-04-28T13:50:35.417Z,3.73
2019-04-28T13:53:03.022Z,5.57
2019-04-28T13:56:05.180Z,1.43
2019-04-28T13:58:36.316Z,2.43
2019-04-28T14:01:28.018Z,0.40
2019-04-28T14:04:20.795Z,4.60
2019-04-28T14:06:50.944Z,4.50
2019-04-28T14:09:18.338Z,1.60
2019-04-28T14:11:45.855Z,1.83
2019-04-28T14:14:13.321Z,1.37
2019-04-28T14:16:40.705Z,1.67
2019-04-28T14:19:08.043Z,2.70
2019-04-28T14:21:35.447Z,2.43
2019-04-28T14:24:03.041Z,1.50
2019-04-28T14:26:30.462Z,3.03
2019-04-28T14:28:57.833Z,1.70
2019-04-28T14:31:25.205Z,1.53
2019-04-28T14:33:52.543Z,1.30
2019-04-28T14:36:19.967Z,1.63
2019-04-28T14:38:47.290Z,1.33
2019-04-28T14:41:14.682Z,3.50
2019-04-28T14:43:41.970Z,0.80
2019-04-28T14:46:09.466Z,2.17
2019-04-28T14:48:36.950Z,2.37
2019-04-28T14:51:04.297Z,1.00
2019-04-28T14:53:31.736Z,1.00
2019-04-28T14:55:59.156Z,1.60
2019-04-28T14:58:26.643Z,2.17
2019-04-28T15:00:58.979Z,1.10
2019-04-28T15:03:27.836Z,1.00
2019-04-28T15:06:11.011Z,1.90
2019-04-28T15:08:46.798Z,1.60
2019-04-28T15:11:32.409Z,1.20
2019-04-28T15:13:59.778Z,2.10
2019-04-28T15:16:27.146Z,0.90
2019-04-28T15:18:54.589Z,1.10
2019-04-28T15:21:22.049Z,1.23
2019-04-28T15:23:49.439Z,1.23
2019-04-28T15:26:16.824Z,1.10
2019-04-28T15:28:44.171Z,1.20
2019-04-28T15:31:11.537Z,0.83
2019-04-28T15:33:38.888Z,1.20
2019-04-28T15:36:06.299Z,0.60
2019-04-28T15:38:33.566Z,0.30
2019-04-28T15:41:00.909Z,2.30
2019-04-28T15:43:28.405Z,2.07
2019-04-28T15:45:55.800Z,1.23
2019-04-28T15:48:23.229Z,1.67
2019-04-28T15:50:50.604Z,2.20
2019-04-28T15:53:17.975Z,1.00
2019-04-28T15:55:52.295Z,0.50
2019-04-28T15:58:38.208Z,0.40
2019-04-28T16:01:05.638Z,0.67
2019-04-28T16:03:33.069Z,0.70
2019-04-28T16:06:00.450Z,0.50
2019-04-28T16:08:27.927Z,1.37
2019-04-28T16:10:55.472Z,1.60
2019-04-28T16:13:24.776Z,2.23
2019-04-28T16:15:52.146Z,1.50
2019-04-28T16:18:19.557Z,1.53
2019-04-28T16:20:47.006Z,1.00
2019-04-28T16:23:14.383Z,0.63
2019-04-28T16:25:41.755Z,1.50
2019-04-28T16:28:09.111Z,1.33
2019-04-28T16:30:36.490Z,1.20
2019-04-28T16:33:03.951Z,0.90
2019-04-28T16:35:31.275Z,1.67
2019-04-28T16:37:58.591Z,1.57
2019-04-28T16:40:33.009Z,7.73
2019-04-28T16:43:06.329Z,1.20
2019-04-28T16:45:33.670Z,0.80
2019-04-28T16:48:01.003Z,1.00
2019-04-28T16:50:28.395Z,0.90
2019-04-28T16:52:55.711Z,2.17
2019-04-28T16:55:27.529Z,0.57
2019-04-28T16:58:17.162Z,0.60
2019-04-28T17:01:12.623Z,0.60
2019-04-28T17:03:39.953Z,0.30
2019-04-28T17:06:07.295Z,0.77
2019-04-28T17:08:34.547Z,1.80
2019-04-28T17:11:02.191Z,0.33
2019-04-28T17:13:29.581Z,0.40
2019-04-28T17:15:56.905Z,0.60
2019-04-28T17:18:24.269Z,0.93
2019-04-28T17:20:54.353Z,1.33
2019-04-28T17:23:20.713Z,1.60
2019-04-28T17:25:48.075Z,1.20
2019-04-28T17:28:15.509Z,1.10
2019-04-28T17:30:42.769Z,1.73
2019-04-28T17:33:10.002Z,1.30
2019-04-28T17:35:37.441Z,0.80
2019-04-28T17:38:06.857Z,0.80
2019-04-28T17:40:34.317Z,0.60
2019-04-28T17:43:01.657Z,1.33
2019-04-28T17:45:29.084Z,0.80
2019-04-28T17:47:59.025Z,1.00
2019-04-28T17:50:26.973Z,0.90
2019-04-28T17:52:54.338Z,2.83
2019-04-28T17:55:21.711Z,3.70
2019-04-28T17:57:49.254Z,6.27
2019-04-28T18:00:27.695Z,3.70
2019-04-28T18:03:09.998Z,1.20
2019-04-28T18:05:41.729Z,0.50
2019-04-28T18:08:20.470Z,0.60
2019-04-28T18:10:38.363Z,0.97
2019-04-28T18:13:05.943Z,2.03
2019-04-28T18:15:51.274Z,0.60
2019-04-28T18:18:37.056Z,1.00
2019-04-28T18:21:04.425Z,0.67
2019-04-28T18:23:32.139Z,0.63
2019-04-28T18:25:59.954Z,0.70
2019-04-28T18:28:27.830Z,2.10
2019-04-28T18:31:15.344Z,0.83
2019-04-28T18:33:51.025Z,1.73
2019-04-28T18:36:25.099Z,1.77
2019-04-28T18:39:01.023Z,2.67
2019-04-28T18:41:59.846Z,1.50
2019-04-28T18:44:27.247Z,1.37
2019-04-28T18:46:54.690Z,1.33
2019-04-28T18:49:22.040Z,3.33
2019-04-28T18:51:49.367Z,1.30
2019-04-28T18:54:16.724Z,1.47
2019-04-28T18:56:44.112Z,1.10
2019-04-28T18:59:11.616Z,2.20
2019-04-28T19:01:47.246Z,1.57
2019-04-28T19:04:14.657Z,2.07
2019-04-28T19:06:42.001Z,1.20
2019-04-28T19:09:37.662Z,1.40
2019-04-28T19:12:12.288Z,2.13
2019-04-28T19:14:44.676Z,1.20
2019-04-28T19:17:24.791Z,3.17
2019-04-28T19:19:52.255Z,2.70
2019-04-28T19:22:19.554Z,2.47
2019-04-28T19:24:46.798Z,2.30
2019-04-28T19:27:14.154Z,2.93
2019-04-28T19:29:41.528Z,2.13
2019-04-28T19:32:08.923Z,2.07
2019-04-28T19:34:36.294Z,1.63
2019-04-28T19:37:03.766Z,4.40
2019-04-28T19:39:31.057Z,3.80
2019-04-28T19:41:58.440Z,3.77
2019-04-28T19:44:25.770Z,8.83
2019-04-28T19:46:53.134Z,11.77
2019-04-28T19:49:20.542Z,10.50
2019-04-28T19:51:47.932Z,17.47
2019-04-28T19:54:17.290Z,25.13
2019-04-28T19:56:57.332Z,20.60
2019-04-28T19:59:30.941Z,22.63
2019-04-28T20:01:58.288Z,12.70
2019-04-28T20:04:25.681Z,9.00
2019-04-28T20:06:52.971Z,6.80
2019-04-28T20:09:20.292Z,8.30
2019-04-28T20:11:47.645Z,7.27
2019-04-28T20:14:15.028Z,6.03
2019-04-28T20:16:42.366Z,5.10
2019-04-28T20:19:09.766Z,6.90
2019-04-28T20:21:37.155Z,4.37
2019-04-28T20:24:04.597Z,2.77
2019-04-28T20:26:31.991Z,2.03
2019-04-28T20:28:59.396Z,2.47
2019-04-28T20:31:26.637Z,2.60
2019-04-28T20:33:53.866Z,3.17
2019-04-28T20:36:32.975Z,2.57
2019-04-28T20:39:04.072Z,2.53
2019-04-28T20:41:31.401Z,3.37
2019-04-28T20:43:59.238Z,2.53
2019-04-28T20:46:26.479Z,2.90
2019-04-28T20:48:53.813Z,3.03
2019-04-28T20:51:21.176Z,3.37
2019-04-28T20:53:48.524Z,5.80
2019-04-28T20:56:16.172Z,6.40
2019-04-28T20:58:43.399Z,4.20
2019-04-28T21:01:10.723Z,5.60
2019-04-28T21:03:38.653Z,3.30
2019-04-28T21:06:06.154Z,6.93
2019-04-28T21:08:33.417Z,4.37
2019-04-28T21:11:00.767Z,6.80
2019-04-28T21:13:28.187Z,7.53
2019-04-28T21:15:55.569Z,3.23
2019-04-28T21:18:23.040Z,3.10
2019-04-28T21:20:50.267Z,3.63
2019-04-28T21:23:17.675Z,3.17
2019-04-28T21:25:45.013Z,4.23
2019-04-28T21:28:12.363Z,4.03
2019-04-28T21:30:39.667Z,4.50
2019-04-28T21:33:06.969Z,4.03
2019-04-28T21:35:34.355Z,3.30
2019-04-28T21:38:01.673Z,3.13
2019-04-28T21:40:29.256Z,2.40
2019-04-28T21:43:17.982Z,2.83
2019-04-28T21:46:16.936Z,3.10
2019-04-28T21:48:49.964Z,4.40
2019-04-28T21:51:17.262Z,3.73
2019-04-28T21:53:44.617Z,6.93
2019-04-28T21:56:11.877Z,5.47
2019-04-28T21:58:39.278Z,3.63
2019-04-28T22:01:06.936Z,2.77
2019-04-28T22:03:34.334Z,2.80
2019-04-28T22:06:01.652Z,4.80
2019-04-28T22:08:28.955Z,3.00
2019-04-28T22:10:56.304Z,3.20
2019-04-28T22:13:23.550Z,5.27
2019-04-28T22:15:50.960Z,2.80
2019-04-28T22:18:18.258Z,2.67
2019-04-28T22:20:45.592Z,2.47
2019-04-28T22:23:18.813Z,4.25
2019-04-28T22:25:46.404Z,2.40
2019-04-28T22:28:13.769Z,3.43
2019-04-28T22:30:41.093Z,3.83
2019-04-28T22:33:08.453Z,3.90
2019-04-28T22:35:35.812Z,3.17
2019-04-28T22:38:03.143Z,8.93
2019-04-28T22:40:30.404Z,4.83
2019-04-28T22:42:57.829Z,4.60
2019-04-28T22:45:25.171Z,3.30
2019-04-28T22:47:52.516Z,4.62
2019-04-28T22:50:48.625Z,3.43
2019-04-28T22:53:18.296Z,3.40
2019-04-28T22:55:51.236Z,3.23
2019-04-28T22:58:43.333Z,2.40
2019-04-28T23:01:15.253Z,3.07
2019-04-28T23:03:53.401Z,3.77
2019-04-28T23:06:20.845Z,4.17
2019-04-28T23:08:48.183Z,3.95
2019-04-28T23:11:15.551Z,3.22
2019-04-28T23:13:43.286Z,3.27
2019-04-28T23:16:10.678Z,4.03
2019-04-28T23:18:37.985Z,5.55
2019-04-28T23:21:12.973Z,2.67
2019-04-28T23:23:40.325Z,2.72
2019-04-28T23:26:07.732Z,3.08
2019-04-28T23:28:35.113Z,2.70
2019-04-28T23:31:02.479Z,4.63
2019-04-28T23:33:29.832Z,3.62
2019-04-28T23:35:57.257Z,3.72
2019-04-28T23:38:24.589Z,4.22
2019-04-28T23:41:17.356Z,5.47
2019-04-28T23:43:44.676Z,3.45
2019-04-28T23:46:12.054Z,3.55
2019-04-28T23:48:39.392Z,3.37
2019-04-28T23:51:19.892Z,5.15
2019-04-28T23:54:01.870Z,3.40
2019-04-28T23:56:29.132Z,4.55
2019-04-28T23:58:56.512Z,4.17
